• Join FlightAware (Why Join?)
  • Login
  • US Flag 
01:22PM EDT


 

Airport Tracker/Info


-or-


 

Live Flight TrackerFlight Track Log ✈ DAL268 ✈ 30-Jul-2013 ✈ KSFO - KJFK

Flight Track Log - Related Links

Times and Time Zones

All times are in EDT time to prevent confusion due to time zone crossing. See the DAL268 flight status page for this flight to view local times or setup timezone preferences in your user account.

Time Position Orientation Groundspeed Altitude Reporting Facility
EDT Latitude Longitude Course Direction KTS MPH feet Rate Location/Type
02:46PM 37.6100 -122.3790 360° North 78 90  Level FlightAware
02:46PM 37.6150 -122.3750 32° Northeast 130 150 780 Level FlightAware
02:46PM 37.6323 -122.3640 27° Northeast 167 192 500 1,500 Climbing FlightAware ADS-B
02:46PM 37.6376 -122.3600 31° Northeast 174 200 800 2,460 Climbing FlightAware ADS-B
02:46PM 37.6404 -122.3580 29° Northeast 176 203 1,000 2,520 Climbing FlightAware ADS-B
02:46PM 37.6423 -122.3550 51° Northeast 181 208 1,100 1,680 Climbing FlightAware ADS-B
02:47PM 37.6444 -122.3530 37° Northeast 183 211 1,200 1,680 Climbing FlightAware ADS-B
02:47PM 37.6502 -122.3440 51° Northeast 194 223 1,500 1,620 Climbing FlightAware ADS-B
02:47PM 37.6551 -122.3370 49° Northeast 208 239 1,700 1,560 Climbing FlightAware ADS-B
02:47PM 37.6664 -122.3230 44° Northeast 231 266 2,100 1,740 Climbing FlightAware ADS-B
02:47PM 37.6785 -122.3080 44° Northeast 245 282 2,600 2,160 Climbing FlightAware ADS-B
02:48PM 37.6858 -122.2990 44° Northeast 253 291 3,000 2,400 Climbing FlightAware ADS-B
02:48PM 37.6996 -122.2810 46° Northeast 270 311 3,600 2,340 Climbing FlightAware ADS-B
02:48PM 37.7192 -122.2560 45° Northeast 280 322 4,500 2,880 Climbing FlightAware ADS-B
02:48PM 37.7364 -122.2340 45° Northeast 281 323 5,600 3,000 Climbing FlightAware ADS-B
02:49PM 37.7506 -122.2160 45° Northeast 286 329 6,200 2,520 Climbing FlightAware ADS-B
02:49PM 37.7735 -122.1880 44° Northeast 301 346 7,200 3,000 Climbing FlightAware ADS-B
02:49PM 37.7841 -122.1730 48° Northeast 299 344 7,900 3,240 Climbing FlightAware ADS-B
02:49PM 37.7930 -122.1550 58° Northeast 298 343 8,500 2,700 Climbing FlightAware ADS-B
02:50PM 37.7969 -122.1440 66° East 300 345 8,800 2,760 Climbing FlightAware ADS-B
02:50PM 37.7997 -122.1340 70° East 300 345 9,100 3,120 Climbing FlightAware ADS-B
02:50PM 37.8067 -122.1050 73° East 299 344 10,000 2,340 Climbing FlightAware ADS-B
02:51PM 37.8197 -122.0520 73° East 318 366 11,000 1,560 Climbing FlightAware ADS-B
02:51PM 37.8336 -121.9960 73° East 348 400 11,600 1,200 Climbing FlightAware ADS-B
02:52PM 37.8487 -121.9340 73° East 376 433 12,200 1,620 Climbing FlightAware ADS-B
02:52PM 37.8651 -121.8680 73° East 391 450 13,300 2,160 Climbing FlightAware ADS-B
02:53PM 37.8814 -121.8020 73° East 398 458 14,400 2,280 Climbing FlightAware ADS-B
02:53PM 37.8982 -121.7340 73° East 403 464 15,600 2,160 Climbing FlightAware ADS-B
02:54PM 37.9150 -121.6650 73° East 410 472 16,600 1,920 Climbing FlightAware ADS-B
02:54PM 37.9321 -121.5950 73° East 417 480 17,600 1,920 Climbing FlightAware ADS-B
02:55PM 37.9498 -121.5220 73° East 427 491 18,600 1,860 Climbing FlightAware ADS-B
02:55PM 37.9694 -121.4410 73° East 436 502 19,600 1,740 Climbing FlightAware ADS-B
02:56PM 37.9879 -121.3650 73° East 443 510 20,500 1,680 Climbing FlightAware ADS-B
02:56PM 38.0098 -121.2750 73° East 453 521 21,500 1,560 Climbing FlightAware ADS-B
02:57PM 38.0291 -121.1940 73° East 460 529 22,300 1,440 Climbing FlightAware ADS-B
02:57PM 38.0520 -121.0970 73° East 470 541 23,200 1,500 Climbing FlightAware
02:58PM 38.0800 -121.0000 70° East 480 552 24,200 1,500 Climbing FlightAware
02:59PM 38.1230 -120.9080 59° Northeast 490 564 25,100 1,260 Climbing FlightAware
02:59PM 38.1510 -120.8510 58° Northeast 498 573 25,500 1,260 Climbing FlightAware
03:00PM 38.2020 -120.7430 59° Northeast 507 583 26,500 1,320 Climbing FlightAware
03:00PM 38.2370 -120.6710 58° Northeast 512 589 27,100 1,200 Climbing FlightAware
03:01PM 38.2850 -120.5690 59° Northeast 518 596 27,900 1,380 Climbing FlightAware
03:01PM 38.3190 -120.4940 60° Northeast 517 595 28,700 2,760 Climbing FlightAware
03:02PM 38.3510 -120.4100 64° Northeast 486 559 30,700 2,340 Climbing FlightAware
03:02PM 38.3850 -120.3160 65° Northeast 491 565 31,400 720 Climbing FlightAware
03:03PM 38.4090 -120.2150 73° East 504 580 31,600 480 Climbing FlightAware
03:04PM 38.4230 -120.1080 80° East 509 586 32,000 1,020 Climbing FlightAware
03:04PM 38.4300 -120.0110 85° East 508 585 32,800 1,560 Climbing FlightAware
03:05PM 38.4390 -119.9070 84° East 501 577 33,800 1,380 Climbing FlightAware
03:05PM 38.4470 -119.8020 84° East 502 578 34,500 960 Climbing FlightAware
03:06PM 38.4540 -119.7100 84° East 507 583 34,900 960 Climbing FlightAware
03:07PM 38.4620 -119.6000 85° East 505 581 35,600 1,020 Climbing FlightAware
03:07PM 38.4700 -119.4840 85° East 506 582 36,200 900 Climbing FlightAware
03:08PM 38.4790 -119.3580 85° East 508 585 36,900 660 Climbing FlightAware
03:08PM 38.4860 -119.2650 84° East 510 587 37,000 60 Climbing FlightAware
03:09PM 38.4930 -119.1570 85° East 510 587 37,000  Level FlightAware
03:10PM 38.5010 -119.0500 85° East 511 588 37,000  Level FlightAware
03:10PM 38.5080 -118.9370 85° East 513 590 37,000  Level FlightAware
03:11PM 38.5120 -118.8800 85° East 513 590 37,000  Level FlightAware
03:11PM 38.5230 -118.7150 85° East 513 590 37,000  Level FlightAware
03:12PM 38.5320 -118.5670 86° East 515 593 37,000  Level FlightAware
03:13PM 38.5410 -118.4290 85° East 517 595 37,000  Level FlightAware
03:14PM 38.5470 -118.3300 86° East 517 595 37,000  Level FlightAware
03:14PM 38.5540 -118.2200 85° East 517 595 37,000  Level FlightAware
03:15PM 38.5600 -118.1250 85° East 515 593 37,000  Level FlightAware
03:15PM 38.5690 -118.0140 84° East 519 597 37,000  Level FlightAware
03:16PM 38.5830 -117.9120 80° East 519 597 37,000  Level FlightAware
03:17PM 38.5960 -117.8190 80° East 519 597 37,000  Level FlightAware
03:17PM 38.6090 -117.7240 80° East 519 597 37,000  Level FlightAware
03:18PM 38.6220 -117.6310 80° East 519 597 37,000  Level FlightAware
03:18PM 38.6350 -117.5390 80° East 519 597 37,000  Level FlightAware
03:19PM 38.6480 -117.4440 80° East 519 597 37,000  Level FlightAware
03:20PM 38.6680 -117.2990 80° East 519 597 37,000  Level FlightAware
03:21PM 38.6800 -117.2070 80° East 519 597 37,000  Level FlightAware
03:21PM 38.6930 -117.1140 80° East 519 597 37,000  Level FlightAware
03:22PM 38.7060 -117.0210 80° East 519 597 37,000  Level FlightAware
03:23PM 38.7310 -116.8410 80° East 519 597 37,000  Level FlightAware
03:24PM 38.7480 -116.7170 80° East 519 597 37,000  Level FlightAware
03:24PM 38.7650 -116.5940 80° East 519 597 37,000  Level FlightAware
03:25PM 38.7770 -116.5010 81° East 519 597 37,000  Level FlightAware
03:26PM 38.8494 -116.1264 81° East 517 595 37,000  Level Salt Lake Center
03:27PM 38.8753 -115.9450 80° East 515 593 37,000  Level Salt Lake Center
03:28PM 38.9003 -115.7639 80° East 518 596 37,000  Level Salt Lake Center
03:29PM 38.9261 -115.5803 80° East 521 600 37,000  Level Salt Lake Center
03:30PM 38.9503 -115.3969 80° East 522 601 37,000  Level Salt Lake Center
03:31PM 38.9775 -115.2053 80° East 525 604 37,000  Level Salt Lake Center
03:32PM 39.0014 -115.0217 80° East 524 603 37,000  Level Salt Lake Center
03:33PM 39.0247 -114.8353 81° East 526 605 37,000  Level Salt Lake Center
03:39PM 39.1700 -113.6690 81° East 535 616 37,000  Level FlightAware
03:39PM 39.1790 -113.5970 81° East 535 616 37,000  Level FlightAware
03:40PM 39.2010 -113.4120 81° East 535 616 37,000  Level FlightAware
03:41PM 39.2130 -113.3160 81° East 535 616 37,000  Level FlightAware
03:42PM 39.2280 -113.1870 81° East 535 616 37,000  Level FlightAware
03:43PM 39.2476 -112.9990 82° East 536 617 37,000  Level FlightAware ADS-B
03:43PM 39.2585 -112.9030 82° East 536 617 37,000  Level FlightAware ADS-B
03:44PM 39.2693 -112.8050 82° East 535 616 37,000  Level FlightAware ADS-B
03:44PM 39.2801 -112.7080 82° East 536 617 37,000  Level FlightAware ADS-B
03:45PM 39.2909 -112.6100 82° East 536 617 37,000  Level FlightAware ADS-B
03:45PM 39.2972 -112.5590 81° East 538 619 37,000  Level FlightAware ADS-B
03:45PM 39.3062 -112.5120 76° East 541 623 37,000  Level FlightAware ADS-B
03:45PM 39.3252 -112.4440 70° East 542 624 37,000  Level FlightAware ADS-B
03:46PM 39.3576 -112.3550 65° Northeast 542 624 37,000  Level FlightAware ADS-B
03:47PM 39.3904 -112.2660 64° Northeast 543 625 37,000  Level FlightAware ADS-B
03:47PM 39.4234 -112.1770 64° Northeast 542 624 37,000  Level FlightAware ADS-B
03:48PM 39.4588 -112.0800 65° Northeast 542 624 37,000  Level FlightAware ADS-B
03:48PM 39.5022 -111.9610 65° Northeast 543 625 37,000  Level FlightAware ADS-B
03:49PM 39.5420 -111.8520 65° Northeast 543 625 37,000  Level FlightAware ADS-B
03:49PM 39.5742 -111.7630 65° Northeast 544 626 37,000  Level FlightAware ADS-B
03:50PM 39.6087 -111.6670 65° Northeast 544 626 37,000  Level FlightAware ADS-B
03:50PM 39.6458 -111.5640 65° Northeast 544 626 37,000  Level FlightAware ADS-B
03:51PM 39.6849 -111.4550 65° Northeast 544 626 37,000  Level FlightAware ADS-B
03:52PM 39.7108 -111.3810 66° East 545 627 37,000  Level FlightAware ADS-B
03:52PM 39.7307 -111.3060 71° East 544 626 37,000  Level FlightAware ADS-B
03:52PM 39.7355 -111.2820 75° East 544 626 37,000  Level FlightAware ADS-B
03:53PM 39.7525 -111.1850 77° East 542 624 37,000  Level FlightAware ADS-B
03:53PM 39.7690 -111.0900 77° East 543 625 37,000  Level FlightAware ADS-B
03:54PM 39.7858 -110.9910 78° East 543 625 37,000  Level FlightAware ADS-B
03:54PM 39.8077 -110.8640 77° East 542 624 37,000  Level FlightAware ADS-B
03:55PM 39.8330 -110.7180 77° East 541 623 37,000  Level FlightAware
03:56PM 39.8530 -110.5980 78° East 540 621 37,000 240 Level FlightAware
03:56PM 39.8780 -110.4530 77° East 540 621 37,300 720 Climbing FlightAware
03:57PM 39.8980 -110.3350 78° East 539 620 37,900 900 Climbing FlightAware
03:58PM 39.9170 -110.2250 77° East 537 618 38,400 900 Climbing FlightAware
03:58PM 39.9410 -110.1120 74° East 535 616 39,000 540 Climbing FlightAware
03:59PM 39.9600 -110.0330 73° East 535 616 39,000  Level FlightAware
03:59PM 39.9880 -109.9250 71° East 532 612 39,000  Level FlightAware
04:00PM 40.0260 -109.7770 71° East 533 613 39,000  Level FlightAware
04:01PM 40.0660 -109.6240 71° East 535 616 39,000  Level FlightAware
04:01PM 40.0930 -109.5210 71° East 536 617 39,000  Level FlightAware
04:02PM 40.1240 -109.4030 71° East 536 617 39,000  Level FlightAware
04:03PM 40.1500 -109.3010 72° East 536 617 39,000  Level FlightAware
04:03PM 40.1880 -109.1530 71° East 537 618 39,000  Level FlightAware
04:04PM 40.2160 -109.0420 72° East 538 619 39,000  Level FlightAware
04:05PM 40.2420 -108.9430 71° East 538 619 39,000  Level FlightAware
04:05PM 40.2700 -108.8310 72° East 538 619 39,000  Level FlightAware
04:06PM 40.2980 -108.7190 72° East 540 621 39,000  Level FlightAware
04:06PM 40.3230 -108.6220 71° East 540 621 39,000  Level FlightAware
04:07PM 40.3470 -108.5230 72° East 540 621 39,000  Level FlightAware
04:07PM 40.3740 -108.4160 72° East 540 621 39,000  Level FlightAware
04:08PM 40.3990 -108.3160 72° East 540 621 39,000  Level FlightAware
04:09PM 40.4260 -108.2060 72° East 541 623 39,000  Level FlightAware
04:09PM 40.4530 -108.0970 72° East 540 621 39,000  Level FlightAware
04:10PM 40.4800 -107.9850 72° East 541 623 39,000  Level FlightAware
04:10PM 40.5070 -107.8750 72° East 541 623 39,000  Level FlightAware
04:11PM 40.5340 -107.7620 73° East 541 623 39,000  Level FlightAware
04:11PM 40.5580 -107.6650 72° East 542 624 39,000  Level FlightAware
04:12PM 40.5850 -107.5530 72° East 541 623 39,000  Level FlightAware
04:13PM 40.6130 -107.4360 72° East 541 623 39,000  Level FlightAware
04:13PM 40.6340 -107.3480 73° East 541 623 39,000  Level FlightAware
04:14PM 40.6620 -107.2270 73° East 541 623 39,000  Level FlightAware
04:14PM 40.6920 -107.1020 72° East 542 624 39,000  Level FlightAware
04:15PM 40.7130 -106.9880 76° East 542 624 39,000  Level FlightAware
04:16PM 40.7250 -106.8910 81° East 543 625 39,000  Level FlightAware
04:16PM 40.7390 -106.7620 82° East 543 625 39,000  Level FlightAware
04:17PM 40.7520 -106.6460 82° East 543 625 39,000  Level FlightAware
04:17PM 40.7660 -106.5310 81° East 544 626 39,000  Level FlightAware
04:18PM 40.7780 -106.4270 81° East 545 627 39,000  Level FlightAware
04:18PM 40.7910 -106.3110 82° East 543 625 39,000  Level FlightAware
04:19PM 40.8030 -106.2060 81° East 543 625 39,000  Level FlightAware
04:20PM 40.8180 -106.0810 81° East 543 625 39,000  Level FlightAware
04:20PM 40.8320 -105.9600 81° East 544 626 39,000  Level FlightAware
04:21PM 40.8450 -105.8600 80° East 545 627 39,000  Level FlightAware
04:21PM 40.8610 -105.7390 80° East 546 628 39,000  Level FlightAware
04:22PM 40.8800 -105.6000 80° East 544 626 39,000  Level FlightAware
04:23PM 40.8914 -105.5130 80° East 545 627 39,000  Level FlightAware ADS-B
04:23PM 40.9130 -105.3560 80° East 546 628 39,000  Level FlightAware
04:24PM 40.9280 -105.2690 77° East 545 627 39,000  Level FlightAware ADS-B
04:24PM 40.9467 -105.1660 76° East 545 627 39,000  Level FlightAware ADS-B
04:25PM 40.9647 -105.0690 76° East 545 627 39,000  Level FlightAware ADS-B
04:25PM 40.9833 -104.9700 76° East 546 628 39,000  Level FlightAware ADS-B
04:26PM 41.0016 -104.8720 76° East 547 629 39,000  Level FlightAware ADS-B
04:26PM 41.0203 -104.7720 76° East 544 626 39,000  Level FlightAware ADS-B
04:27PM 41.0415 -104.6750 74° East 545 627 39,000  Level FlightAware ADS-B
04:27PM 41.0649 -104.5800 72° East 544 626 39,000  Level FlightAware ADS-B
04:28PM 41.0896 -104.4850 71° East 545 627 39,000  Level FlightAware ADS-B
04:28PM 41.1142 -104.3910 71° East 544 626 39,000  Level FlightAware ADS-B
04:29PM 41.1395 -104.2950 71° East 543 625 39,000  Level FlightAware ADS-B
04:29PM 41.1644 -104.2010 71° East 541 623 39,000  Level FlightAware ADS-B
04:30PM 41.1894 -104.1070 71° East 543 625 39,000  Level FlightAware ADS-B
04:30PM 41.2146 -104.0120 71° East 541 623 39,000  Level FlightAware ADS-B
04:31PM 41.2425 -103.9060 71° East 542 624 39,000  Level FlightAware ADS-B
04:31PM 41.2682 -103.8080 71° East 542 624 39,000  Level FlightAware ADS-B
04:32PM 41.2967 -103.7000 71° East 542 624 39,000  Level FlightAware ADS-B
04:33PM 41.3230 -103.5990 71° East 543 625 39,000  Level FlightAware ADS-B
04:33PM 41.3476 -103.5040 71° East 543 625 39,000  Level FlightAware ADS-B
04:34PM 41.3726 -103.4070 71° East 543 625 39,000  Level FlightAware ADS-B
04:34PM 41.3978 -103.3090 71° East 543 625 39,000  Level FlightAware ADS-B
04:35PM 41.4223 -103.2130 71° East 542 624 39,000  Level FlightAware ADS-B
04:35PM 41.4531 -103.0920 71° East 541 623 39,000  Level FlightAware ADS-B
04:36PM 41.4697 -103.0230 72° East 542 624 39,000  Level FlightAware ADS-B
04:36PM 41.4788 -102.9520 80° East 543 625 39,000  Level FlightAware ADS-B
04:37PM 41.4944 -102.8240 81° East 544 626 39,000  Level FlightAware ADS-B
04:37PM 41.5140 -102.6690 80° East 544 626 39,000  Level FlightAware ADS-B
04:38PM 41.5281 -102.5570 80° East 544 626 39,000  Level FlightAware ADS-B
04:38PM 41.5406 -102.4560 81° East 543 625 39,000  Level FlightAware ADS-B
04:39PM 41.5535 -102.3500 81° East 542 624 39,000  Level FlightAware ADS-B
04:40PM 41.5662 -102.2480 81° East 542 624 39,000  Level FlightAware ADS-B
04:40PM 41.5794 -102.1400 81° East 542 624 39,000  Level FlightAware ADS-B
04:41PM 41.5995 -101.9760 81° East 540 621 39,000  Level FlightAware ADS-B
04:42PM 41.6138 -101.8610 81° East 540 621 39,000  Level FlightAware ADS-B
04:42PM 41.6292 -101.7370 81° East 540 621 39,000  Level FlightAware ADS-B
04:43PM 41.6417 -101.6370 80° East 540 621 39,000  Level FlightAware ADS-B
04:43PM 41.6577 -101.5110 80° East 540 621 39,000  Level FlightAware ADS-B
04:44PM 41.6708 -101.4090 80° East 540 621 39,000  Level FlightAware ADS-B
04:44PM 41.6838 -101.3090 80° East 539 620 39,000  Level FlightAware ADS-B
04:45PM 41.7094 -101.1192 80° East 537 618 39,000  Level Denver Center
04:46PM 41.7328 -100.9325 80° East 532 612 39,000  Level Denver Center
04:47PM 41.7603 -100.7114 80° East 536 617 39,000  Level Denver Center
04:48PM 41.7861 -100.5236 79° East 535 616 39,000  Level Denver Center
04:50PM 41.8181 -100.3033 79° East 539 620 39,000  Level Denver Center
04:51PM 41.8453 -100.1150 79° East 537 618 39,000  Level Denver Center
04:52PM 41.8772 -99.8953 79° East 537 618 39,000  Level Denver Center
04:53PM 41.9050 -99.7192 78° East 538 619 39,000  Level Denver Center
04:54PM 41.9353 -99.5239 78° East 534 615 39,000  Level Denver Center
04:55PM 41.9719 -99.2858 78° East 537 618 39,000  Level Denver Center
04:56PM 42.0008 -99.0875 79° East 536 617 39,000  Level Denver Center
04:57PM 42.0311 -98.8908 78° East 536 617 39,000  Level Denver Center
04:58PM 42.0597 -98.6917 79° East 538 619 39,000  Level Denver Center
05:04PM 42.2240 -97.5170 79° East 538 619 39,000  Level FlightAware
05:04PM 42.2430 -97.3800 79° East 538 619 39,000  Level FlightAware
05:05PM 42.2580 -97.2630 80° East 538 619 39,000  Level FlightAware
05:06PM 42.2730 -97.1490 80° East 537 618 39,000  Level FlightAware
05:06PM 42.2890 -97.0300 80° East 537 618 39,000  Level FlightAware
05:07PM 42.3040 -96.9100 80° East 535 616 39,000  Level FlightAware
05:07PM 42.3190 -96.7970 80° East 534 615 39,000  Level FlightAware
05:08PM 42.3350 -96.6710 80° East 533 613 39,000  Level FlightAware
05:08PM 42.3490 -96.5580 80° East 532 612 39,000  Level FlightAware
05:09PM 42.3620 -96.4570 80° East 531 611 39,000  Level FlightAware
05:10PM 42.3770 -96.3380 80° East 530 610 39,000  Level FlightAware
05:10PM 42.3900 -96.2340 80° East 529 609 39,000  Level FlightAware
05:11PM 42.4050 -96.1090 81° East 528 608 39,000  Level FlightAware
05:11PM 42.4180 -96.0050 80° East 526 605 39,000  Level FlightAware
05:12PM 42.4330 -95.8770 81° East 525 604 39,000  Level FlightAware
05:13PM 42.4470 -95.7600 81° East 524 603 39,000  Level FlightAware
05:13PM 42.4590 -95.6590 81° East 523 602 39,000  Level FlightAware
05:14PM 42.4720 -95.5470 81° East 523 602 39,000  Level FlightAware
05:14PM 42.4860 -95.4270 81° East 522 601 39,000  Level FlightAware
05:15PM 42.4990 -95.3150 81° East 521 600 39,000  Level FlightAware
05:15PM 42.5120 -95.2000 81° East 521 600 39,000  Level FlightAware
05:16PM 42.5250 -95.0840 81° East 521 600 39,000  Level FlightAware
05:17PM 42.5360 -94.9860 81° East 520 598 39,000  Level FlightAware
05:17PM 42.5500 -94.8640 81° East 520 598 39,000  Level FlightAware
05:18PM 42.5620 -94.7550 81° East 520 598 39,000  Level FlightAware
05:18PM 42.5730 -94.6470 82° East 520 598 39,000  Level FlightAware
05:19PM 42.5850 -94.5350 82° East 520 598 39,000  Level FlightAware
05:20PM 42.5980 -94.4160 82° East 520 598 39,000  Level FlightAware
05:20PM 42.6080 -94.3120 83° East 520 598 39,000  Level FlightAware
05:21PM 42.6120 -94.1880 87° East 522 601 39,000  Level FlightAware
05:21PM 42.6130 -94.0700 89° East 522 601 39,000  Level FlightAware
05:22PM 42.6140 -93.9510 89° East 520 598 39,000  Level FlightAware
05:22PM 42.6150 -93.8470 89° East 520 598 39,000  Level FlightAware
05:23PM 42.6150 -93.7300 90° East 519 597 39,000  Level FlightAware
05:24PM 42.6160 -93.6150 89° East 519 597 39,000  Level FlightAware
05:24PM 42.6160 -93.5090 90° East 518 596 39,000  Level FlightAware
05:25PM 42.6160 -93.3880 90° East 517 595 39,000  Level FlightAware
05:25PM 42.6170 -93.2760 89° East 517 595 39,000  Level FlightAware
05:26PM 42.6170 -93.1410 90° East 516 594 39,000  Level FlightAware
05:27PM 42.6170 -93.0250 90° East 515 593 39,000  Level FlightAware
05:27PM 42.6160 -92.9240 91° East 514 592 39,000  Level FlightAware
05:28PM 42.6160 -92.8080 90° East 514 592 39,000  Level FlightAware
05:28PM 42.6160 -92.6960 90° East 513 590 39,000  Level FlightAware
05:29PM 42.6150 -92.5800 91° East 513 590 39,000  Level FlightAware
05:30PM 42.6150 -92.4690 90° East 512 589 39,000  Level FlightAware
05:30PM 42.6140 -92.3550 91° East 512 589 39,000  Level FlightAware
05:31PM 42.6130 -92.2410 91° East 511 588 39,000  Level FlightAware
05:31PM 42.6120 -92.1200 91° East 511 588 39,000  Level FlightAware
05:32PM 42.6110 -92.0230 91° East 510 587 39,000  Level FlightAware
05:32PM 42.6100 -91.9090 91° East 509 586 39,000  Level FlightAware
05:33PM 42.6080 -91.7900 91° East 509 586 39,000  Level FlightAware
05:34PM 42.6070 -91.6940 91° East 509 586 39,000  Level FlightAware
05:34PM 42.6060 -91.5730 91° East 508 585 39,000  Level FlightAware
05:35PM 42.6040 -91.4730 92° East 508 585 39,000  Level FlightAware
05:35PM 42.6020 -91.3500 91° East 508 585 39,000  Level FlightAware
05:36PM 42.6000 -91.2330 91° East 507 583 39,000  Level FlightAware
05:37PM 42.5990 -91.1330 91° East 506 582 39,000  Level FlightAware
05:37PM 42.5970 -91.0180 91° East 506 582 39,000  Level FlightAware
05:38PM 42.5940 -90.9130 92° East 506 582 39,000  Level FlightAware
05:38PM 42.5920 -90.8010 91° East 505 581 39,000  Level FlightAware
05:39PM 42.5900 -90.6970 91° East 504 580 39,000  Level FlightAware
05:41PM 42.5850 -90.3690 91° East 504 580 39,000  Level FlightAware
05:42PM 42.5780 -90.1850 93° East 502 578 39,000  Level FlightAware
05:42PM 42.5750 -90.0720 92° East 501 577 39,000  Level FlightAware
05:43PM 42.5720 -89.9590 92° East 500 575 39,000  Level FlightAware
05:43PM 42.5690 -89.8490 92° East 500 575 39,000  Level FlightAware
05:44PM 42.5650 -89.7410 93° East 501 577 39,000  Level FlightAware
05:45PM 42.5620 -89.6280 92° East 501 577 39,000  Level FlightAware
05:45PM 42.5590 -89.5210 92° East 502 578 39,000  Level FlightAware
05:46PM 42.5550 -89.4040 93° East 502 578 39,000  Level FlightAware
05:46PM 42.5520 -89.3060 92° East 503 579 39,000  Level FlightAware
05:47PM 42.5480 -89.1930 93° East 504 580 39,000  Level FlightAware
05:47PM 42.5440 -89.0860 93° East 504 580 39,000  Level FlightAware
05:48PM 42.5400 -88.9650 93° East 504 580 39,000  Level FlightAware
05:49PM 42.5360 -88.8650 93° East 505 581 39,000  Level FlightAware
05:49PM 42.5310 -88.7500 93° East 505 581 39,000  Level FlightAware
05:50PM 42.5270 -88.6420 93° East 506 582 39,000  Level FlightAware
05:50PM 42.5230 -88.5290 93° East 507 583 39,000  Level FlightAware
05:51PM 42.5180 -88.4250 94° East 506 582 39,000  Level FlightAware
05:51PM 42.5140 -88.3180 93° East 506 582 39,000  Level FlightAware
05:52PM 42.5090 -88.1990 93° East 505 581 39,000  Level FlightAware
05:53PM 42.5040 -88.0800 93° East 504 580 39,000  Level FlightAware
05:53PM 42.5010 -87.9970 93° East 504 580 39,000  Level FlightAware
05:54PM 42.5000 -87.8740 91° East 503 579 39,000  Level FlightAware
05:54PM 42.5000 -87.7590 90° East 501 577 39,000  Level FlightAware
05:55PM 42.5000 -87.6450 90° East 500 575 39,000  Level FlightAware
05:56PM 42.4990 -87.5460 91° East 500 575 39,000  Level FlightAware
05:56PM 42.4990 -87.4400 90° East 499 574 39,000  Level FlightAware
05:57PM 42.4980 -87.3150 91° East 499 574 39,000  Level FlightAware
05:57PM 42.4980 -87.2130 90° East 500 575 39,000  Level FlightAware
05:58PM 42.4970 -87.1050 91° East 501 577 39,000  Level FlightAware
05:58PM 42.4960 -86.9960 91° East 500 575 39,000  Level FlightAware
05:59PM 42.4950 -86.8820 91° East 500 575 39,000  Level FlightAware
06:00PM 42.4940 -86.7790 91° East 500 575 39,000  Level FlightAware
06:00PM 42.4930 -86.6650 91° East 500 575 39,000  Level FlightAware
06:01PM 42.4910 -86.5600 91° East 501 577 39,000  Level FlightAware
06:01PM 42.4900 -86.4520 91° East 502 578 39,000  Level FlightAware
06:02PM 42.4880 -86.3290 91° East 503 579 39,000  Level FlightAware
06:03PM 42.4870 -86.2330 91° East 505 581 39,000  Level FlightAware
06:03PM 42.4850 -86.1150 91° East 506 582 39,000  Level FlightAware
06:04PM 42.4830 -86.0130 91° East 507 583 39,000  Level FlightAware
06:04PM 42.4810 -85.8930 91° East 508 585 39,000  Level FlightAware
06:05PM 42.4790 -85.7790 91° East 509 586 39,000  Level FlightAware
06:05PM 42.4770 -85.6770 91° East 510 587 39,000  Level FlightAware
06:06PM 42.4750 -85.5640 91° East 512 589 39,000  Level FlightAware
06:07PM 42.4720 -85.4450 92° East 513 590 39,000  Level FlightAware
06:07PM 42.4700 -85.3400 91° East 514 592 39,000  Level FlightAware
06:08PM 42.4670 -85.2230 92° East 515 593 39,000  Level FlightAware
06:08PM 42.4640 -85.1080 92° East 516 594 39,000  Level FlightAware
06:09PM 42.4610 -84.9940 92° East 517 595 39,000  Level FlightAware
06:10PM 42.4580 -84.8690 92° East 519 597 39,000  Level FlightAware
06:10PM 42.4550 -84.7460 92° East 520 598 39,000  Level FlightAware
06:11PM 42.4520 -84.6480 92° East 521 600 39,000  Level FlightAware
06:12PM 42.4480 -84.5280 93° East 523 602 39,000  Level FlightAware
06:12PM 42.4450 -84.4110 92° East 524 603 39,000  Level FlightAware
06:13PM 42.4410 -84.2930 93° East 526 605 39,000  Level FlightAware
06:13PM 42.4380 -84.1830 92° East 527 606 39,000  Level FlightAware
06:14PM 42.4340 -84.0640 93° East 527 606 39,000  Level FlightAware
06:14PM 42.4290 -83.9380 93° East 527 606 39,000  Level FlightAware
06:15PM 42.4250 -83.8330 93° East 528 608 39,000  Level FlightAware
06:16PM 42.4210 -83.7160 93° East 528 608 39,000  Level FlightAware
06:16PM 42.4170 -83.5970 93° East 528 608 39,000  Level FlightAware
06:17PM 42.4120 -83.4770 93° East 529 609 39,000  Level FlightAware
06:17PM 42.4080 -83.3710 93° East 531 611 39,000  Level FlightAware
06:18PM 42.4030 -83.2520 93° East 532 612 39,000  Level FlightAware
06:18PM 42.3980 -83.1330 93° East 532 612 39,000  Level FlightAware
06:19PM 42.3930 -83.0140 93° East 532 612 39,000  Level FlightAware
06:19PM 42.3890 -82.9360 94° East 532 612 39,000  Level FlightAware
06:20PM 42.3820 -82.7730 93° East 533 613 39,000  Level FlightAware
06:21PM 42.3760 -82.6390 93° East 532 612 39,000  Level FlightAware
06:22PM 42.3720 -82.5220 93° East 533 613 39,000  Level FlightAware
06:22PM 42.3680 -82.4160 93° East 534 615 39,000  Level FlightAware
06:22PM 42.3670 -82.3960 94° East 534 615 39,000  Level FlightAware
06:23PM 42.3580 -82.1820 93° East 536 617 39,000  Level FlightAware
06:24PM 42.3540 -82.0810 93° East 537 618 39,000  Level FlightAware
06:24PM 42.3490 -81.9650 93° East 538 619 39,000  Level FlightAware
06:25PM 42.3440 -81.8540 93° East 539 620 39,000  Level FlightAware
06:26PM 42.3390 -81.7330 93° East 539 620 39,000  Level FlightAware
06:26PM 42.3330 -81.6130 94° East 540 621 39,000  Level FlightAware
06:27PM 42.3280 -81.5160 94° East 540 621 39,000  Level FlightAware
06:27PM 42.3210 -81.3750 94° East 541 623 39,000  Level FlightAware
06:28PM 42.3160 -81.2610 93° East 542 624 39,000  Level FlightAware
06:28PM 42.3110 -81.1660 94° East 542 624 39,000  Level FlightAware
06:29PM 42.3040 -81.0350 94° East 543 625 39,000  Level FlightAware
06:30PM 42.2980 -80.9100 94° East 543 625 39,000  Level FlightAware
06:30PM 42.2920 -80.7980 94° East 544 626 39,000  Level FlightAware
06:31PM 42.2850 -80.6820 95° East 545 627 39,000  Level FlightAware
06:31PM 42.2770 -80.5300 94° East 545 627 39,000  Level FlightAware
06:32PM 42.2700 -80.4150 95° East 545 627 39,000  Level FlightAware
06:33PM 42.2630 -80.2860 94° East 545 627 39,000  Level FlightAware
06:33PM 42.2550 -80.1580 95° East 544 626 39,000  Level FlightAware
06:34PM 42.2480 -80.0360 94° East 542 624 39,000  Level FlightAware
06:35PM 42.2410 -79.9200 95° East 540 621 39,000  Level FlightAware
06:35PM 42.2310 -79.7920 96° East 539 620 39,000  Level FlightAware
06:36PM 42.2150 -79.6710 100° East 538 619 39,000  Level FlightAware
06:36PM 42.1940 -79.5430 102° East 536 617 39,000  Level FlightAware
06:37PM 42.1750 -79.4380 104° East 534 615 39,000  Level FlightAware
06:38PM 42.1520 -79.3140 104° East 530 610 39,000  Level FlightAware
06:38PM 42.1290 -79.1950 105° East 528 608 39,000  Level FlightAware
06:39PM 42.1090 -79.0870 104° East 525 604 39,000 -120 Level FlightAware
06:39PM 42.0850 -78.9660 105° East 522 601 38,900 -1,200 Descending FlightAware
06:41PM 42.0430 -78.7440 104° East 542 624 37,000 -1,200 Descending FlightAware
06:41PM 42.0190 -78.6250 105° East 545 627 37,000  Level FlightAware
06:42PM 41.9980 -78.5150 104° East 545 627 37,000  Level FlightAware
06:42PM 41.9790 -78.4210 105° East 544 626 37,000  Level FlightAware
06:43PM 41.9550 -78.3020 105° East 544 626 37,000  Level FlightAware
06:43PM 41.9340 -78.1950 105° East 543 625 37,000  Level FlightAware
06:44PM 41.9080 -78.0650 105° East 542 624 37,000  Level FlightAware
06:45PM 41.8840 -77.9460 105° East 541 623 37,000  Level FlightAware
06:45PM 41.8790 -77.9190 104° East 541 623 37,000  Level FlightAware
06:45PM 41.8490 -77.7900 107° East 541 623 37,000  Level FlightAware
06:48PM 41.7260 -77.3290 110° East 536 617 37,000  Level FlightAware
06:48PM 41.6980 -77.2230 109° East 531 611 37,000  Level FlightAware
06:49PM 41.6700 -77.1210 110° East 525 604 37,000  Level FlightAware
06:50PM 41.6470 -77.0330 109° East 518 596 37,000  Level FlightAware
06:50PM 41.6160 -76.9210 110° East 512 589 37,000  Level FlightAware
06:51PM 41.5859 -76.8090 110° East 513 590 37,000  Level FlightAware ADS-B
06:51PM 41.5593 -76.7117 110° East 515 593 37,000  Level FlightAware ADS-B
06:52PM 41.5337 -76.6190 110° East 519 597 37,000  Level FlightAware ADS-B
06:52PM 41.5016 -76.5025 110° East 522 601 37,000 -180 Level FlightAware ADS-B
06:53PM 41.4754 -76.4085 110° East 524 603 36,800 -1,140 Descending FlightAware ADS-B
06:53PM 41.4501 -76.3176 110° East 525 604 35,900 -2,160 Descending FlightAware ADS-B
06:54PM 41.4233 -76.2214 110° East 523 602 34,600 -2,400 Descending FlightAware ADS-B
06:55PM 41.3970 -76.1270 110° East 516 594 33,400 -2,340 Descending FlightAware
06:55PM 41.3862 -76.0896 111° Southeast 517 595 32,900 -2,580 Descending FlightAware ADS-B
06:55PM 41.3590 -75.9929 111° Southeast 509 586 31,500 -2,580 Descending FlightAware ADS-B
06:56PM 41.3321 -75.8975 111° Southeast 504 580 30,100 -2,400 Descending FlightAware ADS-B
06:56PM 41.3071 -75.8093 111° Southeast 496 571 29,000 -2,100 Descending FlightAware ADS-B
06:57PM 41.2824 -75.7233 111° Southeast 485 558 28,000 -1,980 Descending FlightAware ADS-B
06:57PM 41.2558 -75.6381 113° Southeast 474 545 27,000 -1,980 Descending FlightAware ADS-B
06:58PM 41.2294 -75.5582 114° Southeast 463 533 26,000 -2,040 Descending FlightAware ADS-B
06:58PM 41.2036 -75.4811 114° Southeast 457 526 25,000 -1,980 Descending FlightAware ADS-B
06:59PM 41.1778 -75.4047 114° Southeast 448 516 24,000 -1,740 Descending FlightAware ADS-B
06:59PM 41.1487 -75.3184 114° Southeast 439 505 23,100 -960 Descending FlightAware ADS-B
07:00PM 41.1226 -75.2413 114° Southeast 440 506 23,000 -900 Descending FlightAware ADS-B
07:01PM 41.0967 -75.1651 114° Southeast 441 507 22,200 -1,080 Descending FlightAware ADS-B
07:01PM 41.0708 -75.0886 114° Southeast 442 509 21,900 -720 Descending FlightAware ADS-B
07:02PM 41.0456 -75.0146 114° Southeast 433 498 21,500 -780 Descending FlightAware ADS-B
07:02PM 41.0205 -74.9411 114° Southeast 412 474 21,100 -600 Descending FlightAware ADS-B
07:02PM 41.0062 -74.8973 113° Southeast 393 452 21,000 -240 Descending FlightAware ADS-B
07:03PM 40.9993 -74.8705 109° East 383 441 21,000  Level FlightAware ADS-B
07:03PM 40.9883 -74.8015 102° East 373 429 21,000  Level FlightAware ADS-B
07:03PM 40.9828 -74.7491 98° East 372 428 21,000  Level FlightAware ADS-B
07:04PM 40.9824 -74.7323 92° East 369 425 21,000  Level FlightAware ADS-B
07:04PM 40.9839 -74.7147 84° East 366 421 21,000  Level FlightAware ADS-B
07:04PM 40.9873 -74.6974 75° East 365 420 21,000  Level FlightAware ADS-B
07:04PM 40.9919 -74.6823 68° East 364 419 21,000  Level FlightAware ADS-B
07:04PM 41.0158 -74.6223 62° Northeast 365 420 21,000  Level FlightAware ADS-B
07:05PM 41.0411 -74.5612 61° Northeast 362 417 21,000  Level FlightAware ADS-B
07:06PM 41.0659 -74.5013 61° Northeast 362 417 21,000 -180 Level FlightAware ADS-B
07:06PM 41.0725 -74.4824 65° Northeast 366 421 20,900 -360 Descending FlightAware ADS-B
07:06PM 41.0756 -74.4637 78° East 370 426 20,900 -480 Level FlightAware ADS-B
07:06PM 41.0761 -74.4511 87° East 370 426 20,800 -1,020 Descending FlightAware ADS-B
07:06PM 41.0733 -74.4233 98° East 372 428 20,600 -1,200 Descending FlightAware ADS-B
07:06PM 41.0645 -74.3932 111° Southeast 370 426 20,300 -1,200 Descending FlightAware ADS-B
07:06PM 41.0593 -74.3819 121° Southeast 369 425 20,200 -1,440 Descending FlightAware ADS-B
07:07PM 41.0524 -74.3696 127° Southeast 366 421 20,000 -1,500 Descending FlightAware ADS-B
07:07PM 41.0138 -74.3046 128° Southeast 362 417 19,100 -900 Descending FlightAware ADS-B
07:08PM 40.9798 -74.2470 128° Southeast 362 417 19,000 -120 Descending FlightAware ADS-B
07:08PM 40.9482 -74.1929 128° Southeast 363 418 19,000  Level FlightAware ADS-B
07:09PM 40.9166 -74.1388 128° Southeast 362 417 19,000 -300 Level FlightAware ADS-B
07:09PM 40.8996 -74.1194 139° Southeast 354 407 18,800 -780 Descending FlightAware ADS-B
07:09PM 40.8972 -74.1172 145° Southeast 352 405 18,800 -960 Level FlightAware ADS-B
07:09PM 40.8818 -74.1058 151° Southeast 347 399 18,600 -1,020 Descending FlightAware ADS-B
07:09PM 40.8796 -74.1044 154° Southeast 346 398 18,600 -1,500 Level FlightAware ADS-B
07:09PM 40.8697 -74.0990 158° South 344 396 18,400 -1,800 Descending FlightAware ADS-B
07:10PM 40.8342 -74.0826 161° South 341 392 17,700 -1,800 Descending FlightAware ADS-B
07:10PM 40.8243 -74.0783 162° South 341 392 17,500 -1,560 Descending FlightAware ADS-B
07:10PM 40.7877 -74.0623 162° South 338 389 16,900 -1,560 Descending FlightAware ADS-B
07:11PM 40.7661 -74.0529 162° South 336 387 16,500 -1,620 Descending FlightAware ADS-B
07:11PM 40.7433 -74.0429 162° South 335 386 16,100 -900 Descending FlightAware ADS-B
07:11PM 40.6969 -74.0233 162° South 331 381 15,800 -300 Descending FlightAware ADS-B
07:12PM 40.6514 -74.0045 163° South 333 383 15,800 -300 Level FlightAware ADS-B
07:12PM 40.6069 -73.9859 162° South 330 380 15,500 -720 Descending FlightAware ADS-B
07:12PM 40.6011 -73.9835 163° South 329 379 15,400 -1,560 Descending FlightAware ADS-B
07:13PM 40.5623 -73.9675 163° South 328 377 14,700 -1,620 Descending FlightAware ADS-B
07:13PM 40.5183 -73.9498 163° South 327 376 13,900 -1,620 Descending FlightAware ADS-B
07:14PM 40.4748 -73.9329 164° South 325 374 13,100 -1,140 Descending FlightAware ADS-B
07:14PM 40.4314 -73.9165 164° South 307 353 12,800 -300 Descending FlightAware ADS-B
07:15PM 40.3911 -73.9008 163° South 279 321 12,800  Level FlightAware ADS-B
07:15PM 40.3745 -73.8945 164° South 272 313 12,800  Level FlightAware ADS-B
07:15PM 40.3593 -73.8934 177° South 261 300 12,800 -720 Level FlightAware ADS-B
07:16PM 40.3239 -73.9025 191° South 255 293 12,300 -1,080 Descending FlightAware ADS-B
07:16PM 40.2861 -73.9133 192° South 252 290 11,700 -1,260 Descending FlightAware ADS-B
07:16PM 40.2793 -73.9141 185° South 255 293 11,500 -1,440 Descending FlightAware ADS-B
07:17PM 40.2503 -73.8949 153° Southeast 265 305 10,900 -1,320 Descending FlightAware ADS-B
07:17PM 40.2470 -73.8879 122° Southeast 265 305 10,800 -1,500 Descending FlightAware ADS-B
07:17PM 40.2421 -73.8717 112° Southeast 266 306 10,500 -1,260 Descending FlightAware ADS-B
07:18PM 40.2330 -73.8260 105° East 262 302 9,900 -1,320 Descending FlightAware
07:18PM 40.2468 -73.7811 68° East 267 307 9,200 -1,380 Descending FlightAware ADS-B
07:18PM 40.2504 -73.7728 60° Northeast 254 292 9,100 -1,080 Descending FlightAware ADS-B
07:19PM 40.2604 -73.7499 60° Northeast 252 290 8,800 -1,140 Descending FlightAware ADS-B
07:19PM 40.2772 -73.7177 56° Northeast 247 284 8,300 -1,200 Descending FlightAware ADS-B
07:19PM 40.2927 -73.7000 41° Northeast 245 282 7,900 -1,140 Descending FlightAware ADS-B
07:20PM 40.3371 -73.6510 40° Northeast 241 277 7,000 -960 Descending FlightAware ADS-B
07:20PM 40.3517 -73.6349 40° Northeast 234 269 6,800 -420 Descending FlightAware ADS-B
07:21PM 40.3652 -73.6202 40° Northeast 235 270 6,800  Level FlightAware ADS-B
07:21PM 40.3786 -73.6087 33° Northeast 231 266 6,800  Level FlightAware ADS-B
07:21PM 40.3932 -73.5974 31° Northeast 233 268 6,800  Level FlightAware ADS-B
07:22PM 40.4103 -73.5844 30° Northeast 233 268 6,800  Level FlightAware ADS-B
07:22PM 40.4420 -73.5600 30° Northeast 231 266 6,800  Level FlightAware
07:23PM 40.4610 -73.5460 29° Northeast 229 264 6,800  Level FlightAware
07:23PM 40.4808 -73.5311 30° Northeast 230 265 6,800  Level FlightAware ADS-B
07:23PM 40.4952 -73.5200 30° Northeast 230 265 6,800  Level FlightAware ADS-B
07:23PM 40.5127 -73.5066 30° Northeast 229 264 6,800 -180 Level FlightAware ADS-B
07:24PM 40.5309 -73.4926 30° Northeast 235 270 6,700 -780 Descending FlightAware ADS-B
07:24PM 40.5700 -73.4620 31° Northeast 233 268 6,000 -1,080 Descending FlightAware
07:25PM 40.5890 -73.4480 29° Northeast 231 266 5,600 -1,320 Descending FlightAware
07:25PM 40.6050 -73.4360 30° Northeast 230 265 5,200 -1,080 Descending FlightAware
07:25PM 40.6250 -73.4200 31° Northeast 227 261 4,900 -600 Descending FlightAware
07:26PM 40.6440 -73.4090 24° Northeast 227 261 4,800 -240 Descending FlightAware
07:26PM 40.6500 -73.4070 14° North 224 258 4,800  Level FlightAware
07:26PM 40.6710 -73.4170 340° North 219 252 4,800  Level FlightAware
07:27PM 40.6880 -73.4310 328° Northwest 218 251 4,800 -360 Level FlightAware
07:27PM 40.7030 -73.4440 327° Northwest 213 245 4,600 -960 Descending FlightAware
07:27PM 40.7090 -73.4520 315° West 212 244 4,400 -1,080 Descending FlightAware
07:27PM 40.7210 -73.4700 311° West 210 242 4,100 -900 Descending FlightAware
07:28PM 40.7330 -73.4900 308° West 211 243 3,800 -600 Descending FlightAware
07:28PM 40.7410 -73.5030 309° West 213 245 3,800 -180 Level FlightAware
07:28PM 40.7550 -73.5270 308° West 191 220 3,700 -300 Descending FlightAware
07:29PM 40.7650 -73.5440 308° West 177 204 3,600 -600 Descending FlightAware
07:29PM 40.7750 -73.5610 308° West 173 199 3,300 -840 Descending FlightAware
07:29PM 40.7820 -73.5760 302° West 172 198 3,100 -900 Descending FlightAware
07:30PM 40.7890 -73.5920 300° West 175 201 2,800 -480 Descending FlightAware
07:30PM 40.7950 -73.6160 288° West 177 204 2,800  Level FlightAware
07:30PM 40.7890 -73.6450 255° West 181 208 2,800  Level FlightAware
07:31PM 40.7840 -73.6570 241° Southwest 182 209 2,800  Level FlightAware
07:31PM 40.7750 -73.6710 230° Southwest 185 213 2,800 -540 Level FlightAware
07:31PM 40.7600 -73.6860 217° Southwest 194 223 2,500 -960 Descending FlightAware
07:31PM 40.7520 -73.6930 214° Southwest 193 222 2,300 -1,080 Descending FlightAware
07:32PM 40.7330 -73.7060 207° Southwest 180 207 1,900 -1,080 Descending FlightAware
07:32PM 40.7220 -73.7130 206° Southwest 161 185 1,600 -900 Descending FlightAware
07:32PM 40.7070 -73.7240 209° Southwest 141 162 1,300 -840 Descending FlightAware
07:33PM 40.6950 -73.7320 207° Southwest 141 162 1,000 -780 Descending FlightAware
07:33PM 40.6830 -73.7390 204° Southwest 141 162 800 -780 Descending FlightAware
07:33PM 40.6720 -73.7470 209° Southwest 138 159 500 -900 Descending FlightAware
07:34PM 40.6630 -73.7540 211° Southwest 137 158 300 -720 Descending FlightAware
07:34PM 40.6520 -73.7620 209° Southwest 133 153 100 -600 Descending FlightAware
07:34PM 40.6420 -73.7700 211° Southwest 136 157 -300 Descending FlightAware